sensor_id;sensor_type;location;lat;lon;timestamp;pressure;altitude;pressure_sealevel;temperature;humidity
59873;BME280;50750;51.636;4.948;2022-07-21T00:00:51;101908.30;;;27.67;51.65
59873;BME280;50750;51.636;4.948;2022-07-21T00:03:18;101901.52;;;27.66;51.64
59873;BME280;50750;51.636;4.948;2022-07-21T00:05:44;101884.61;;;27.66;51.61
59873;BME280;50750;51.636;4.948;2022-07-21T00:08:11;101879.02;;;27.67;51.73
59873;BME280;50750;51.636;4.948;2022-07-21T00:10:39;101870.47;;;27.65;51.65
59873;BME280;50750;51.636;4.948;2022-07-21T00:13:06;101870.35;;;27.65;51.63
59873;BME280;50750;51.636;4.948;2022-07-21T00:15:32;101869.30;;;27.65;51.58
59873;BME280;50750;51.636;4.948;2022-07-21T00:17:59;101874.52;;;27.64;51.52
59873;BME280;50750;51.636;4.948;2022-07-21T00:20:26;101876.19;;;27.64;51.77
59873;BME280;50750;51.636;4.948;2022-07-21T00:22:54;101871.16;;;27.64;51.60
59873;BME280;50750;51.636;4.948;2022-07-21T00:25:22;101865.59;;;27.64;51.79
59873;BME280;50750;51.636;4.948;2022-07-21T00:27:48;101868.26;;;27.64;51.76
59873;BME280;50750;51.636;4.948;2022-07-21T00:30:15;101873.29;;;27.64;51.69
59873;BME280;50750;51.636;4.948;2022-07-21T00:32:42;101880.42;;;27.65;51.66
59873;BME280;50750;51.636;4.948;2022-07-21T00:35:10;101885.67;;;27.65;51.59
59873;BME280;50750;51.636;4.948;2022-07-21T00:37:38;101881.12;;;27.65;51.56
59873;BME280;50750;51.636;4.948;2022-07-21T00:40:07;101878.06;;;27.65;51.76
59873;BME280;50750;51.636;4.948;2022-07-21T00:42:35;101874.70;;;27.65;51.55
59873;BME280;50750;51.636;4.948;2022-07-21T00:45:04;101880.85;;;27.64;51.55
59873;BME280;50750;51.636;4.948;2022-07-21T00:47:31;101889.71;;;27.64;51.62
59873;BME280;50750;51.636;4.948;2022-07-21T00:49:59;101887.23;;;27.63;51.65
59873;BME280;50750;51.636;4.948;2022-07-21T00:52:26;101882.59;;;27.63;51.64
59873;BME280;50750;51.636;4.948;2022-07-21T00:54:53;101880.09;;;27.63;51.75
59873;BME280;50750;51.636;4.948;2022-07-21T00:57:20;101877.09;;;27.62;51.64
59873;BME280;50750;51.636;4.948;2022-07-21T00:59:47;101882.52;;;27.62;51.67
59873;BME280;50750;51.636;4.948;2022-07-21T01:02:15;101883.64;;;27.61;51.51
59873;BME280;50750;51.636;4.948;2022-07-21T01:04:41;101887.42;;;27.61;51.67
59873;BME280;50750;51.636;4.948;2022-07-21T01:07:08;101884.44;;;27.60;51.76
59873;BME280;50750;51.636;4.948;2022-07-21T01:09:35;101877.28;;;27.60;51.69
59873;BME280;50750;51.636;4.948;2022-07-21T01:12:03;101874.81;;;27.59;51.73
59873;BME280;50750;51.636;4.948;2022-07-21T01:14:30;101870.67;;;27.59;51.49
59873;BME280;50750;51.636;4.948;2022-07-21T01:16:57;101873.23;;;27.59;51.68
59873;BME280;50750;51.636;4.948;2022-07-21T01:19:24;101870.39;;;27.58;51.70
59873;BME280;50750;51.636;4.948;2022-07-21T01:21:50;101874.40;;;27.58;51.75
59873;BME280;50750;51.636;4.948;2022-07-21T01:24:18;101871.39;;;27.57;51.67
59873;BME280;50750;51.636;4.948;2022-07-21T01:26:48;101870.69;;;27.57;51.71
59873;BME280;50750;51.636;4.948;2022-07-21T01:29:16;101864.09;;;27.57;51.75
59873;BME280;50750;51.636;4.948;2022-07-21T01:31:45;101856.94;;;27.56;51.73
59873;BME280;50750;51.636;4.948;2022-07-21T01:34:12;101852.83;;;27.55;51.71
59873;BME280;50750;51.636;4.948;2022-07-21T01:36:39;101857.71;;;27.55;51.61
59873;BME280;50750;51.636;4.948;2022-07-21T01:39:06;101861.17;;;27.54;51.65
59873;BME280;50750;51.636;4.948;2022-07-21T01:41:52;101867.50;;;27.54;51.62
59873;BME280;50750;51.636;4.948;2022-07-21T01:44:19;101866.45;;;27.54;51.70
59873;BME280;50750;51.636;4.948;2022-07-21T01:46:48;101865.61;;;27.53;51.66
59873;BME280;50750;51.636;4.948;2022-07-21T01:49:17;101864.91;;;27.53;51.75
59873;BME280;50750;51.636;4.948;2022-07-21T01:51:44;101864.06;;;27.52;51.63
59873;BME280;50750;51.636;4.948;2022-07-21T01:54:12;101867.70;;;27.52;51.75
59873;BME280;50750;51.636;4.948;2022-07-21T01:56:39;101866.13;;;27.51;51.65
59873;BME280;50750;51.636;4.948;2022-07-21T01:59:06;101863.77;;;27.51;51.79
59873;BME280;50750;51.636;4.948;2022-07-21T02:01:33;101857.73;;;27.50;51.77
59873;BME280;50750;51.636;4.948;2022-07-21T02:04:02;101857.21;;;27.50;51.62
59873;BME280;50750;51.636;4.948;2022-07-21T02:06:30;101856.88;;;27.50;51.59
59873;BME280;50750;51.636;4.948;2022-07-21T02:08:57;101856.02;;;27.49;51.83
59873;BME280;50750;51.636;4.948;2022-07-21T02:11:24;101852.85;;;27.49;51.75
59873;BME280;50750;51.636;4.948;2022-07-21T02:13:50;101853.23;;;27.48;51.65
59873;BME280;50750;51.636;4.948;2022-07-21T02:16:17;101852.69;;;27.48;51.74
59873;BME280;50750;51.636;4.948;2022-07-21T02:18:44;101844.98;;;27.48;51.76
59873;BME280;50750;51.636;4.948;2022-07-21T02:21:10;101843.77;;;27.48;51.75
59873;BME280;50750;51.636;4.948;2022-07-21T02:23:37;101843.96;;;27.47;51.84
59873;BME280;50750;51.636;4.948;2022-07-21T02:26:03;101843.63;;;27.47;51.81
59873;BME280;50750;51.636;4.948;2022-07-21T02:28:30;101838.69;;;27.46;51.85
59873;BME280;50750;51.636;4.948;2022-07-21T02:30:56;101840.11;;;27.46;51.77
59873;BME280;50750;51.636;4.948;2022-07-21T02:33:23;101842.49;;;27.46;51.76
59873;BME280;50750;51.636;4.948;2022-07-21T02:35:49;101850.44;;;27.45;51.76
59873;BME280;50750;51.636;4.948;2022-07-21T02:38:15;101853.19;;;27.45;51.77
59873;BME280;50750;51.636;4.948;2022-07-21T02:40:43;101851.25;;;27.44;51.62
59873;BME280;50750;51.636;4.948;2022-07-21T02:43:09;101850.00;;;27.44;51.83
59873;BME280;50750;51.636;4.948;2022-07-21T02:45:36;101846.85;;;27.43;51.86
59873;BME280;50750;51.636;4.948;2022-07-21T02:48:11;101847.23;;;27.43;51.79
59873;BME280;50750;51.636;4.948;2022-07-21T02:50:41;101843.81;;;27.43;51.78
59873;BME280;50750;51.636;4.948;2022-07-21T02:53:16;101841.84;;;27.43;51.80
59873;BME280;50750;51.636;4.948;2022-07-21T02:55:47;101835.77;;;27.42;51.84
59873;BME280;50750;51.636;4.948;2022-07-21T02:58:16;101829.70;;;27.42;51.77
59873;BME280;50750;51.636;4.948;2022-07-21T03:00:47;101820.96;;;27.41;51.90
59873;BME280;50750;51.636;4.948;2022-07-21T03:03:14;101815.96;;;27.41;51.79
59873;BME280;50750;51.636;4.948;2022-07-21T03:05:41;101823.55;;;27.41;51.86
59873;BME280;50750;51.636;4.948;2022-07-21T03:08:09;101830.98;;;27.40;51.76
59873;BME280;50750;51.636;4.948;2022-07-21T03:10:37;101834.61;;;27.39;51.78
59873;BME280;50750;51.636;4.948;2022-07-21T03:13:04;101836.98;;;27.39;51.72
59873;BME280;50750;51.636;4.948;2022-07-21T03:15:31;101842.59;;;27.39;51.73
59873;BME280;50750;51.636;4.948;2022-07-21T03:17:58;101842.98;;;27.38;51.69
59873;BME280;50750;51.636;4.948;2022-07-21T03:20:27;101837.95;;;27.38;51.89
59873;BME280;50750;51.636;4.948;2022-07-21T03:22:54;101832.95;;;27.38;51.86
59873;BME280;50750;51.636;4.948;2022-07-21T03:25:22;101834.81;;;27.37;51.78
59873;BME280;50750;51.636;4.948;2022-07-21T03:27:48;101836.45;;;27.37;51.74
59873;BME280;50750;51.636;4.948;2022-07-21T03:30:15;101835.09;;;27.36;51.82
59873;BME280;50750;51.636;4.948;2022-07-21T03:32:43;101834.08;;;27.35;51.85
59873;BME280;50750;51.636;4.948;2022-07-21T03:35:11;101838.21;;;27.35;51.72
59873;BME280;50750;51.636;4.948;2022-07-21T03:37:52;101835.08;;;27.34;51.78
59873;BME280;50750;51.636;4.948;2022-07-21T03:40:25;101832.02;;;27.34;51.71
59873;BME280;50750;51.636;4.948;2022-07-21T03:42:57;101833.15;;;27.33;51.83
59873;BME280;50750;51.636;4.948;2022-07-21T03:45:25;101839.43;;;27.34;51.72
59873;BME280;50750;51.636;4.948;2022-07-21T03:47:52;101846.16;;;27.33;51.77
59873;BME280;50750;51.636;4.948;2022-07-21T03:50:19;101842.59;;;27.32;51.77
59873;BME280;50750;51.636;4.948;2022-07-21T03:52:46;101844.38;;;27.32;51.76
59873;BME280;50750;51.636;4.948;2022-07-21T03:55:14;101846.95;;;27.31;51.77
59873;BME280;50750;51.636;4.948;2022-07-21T03:57:53;101849.15;;;27.31;51.71
59873;BME280;50750;51.636;4.948;2022-07-21T04:00:41;101848.67;;;27.31;51.84
59873;BME280;50750;51.636;4.948;2022-07-21T04:03:09;101844.38;;;27.30;51.70
59873;BME280;50750;51.636;4.948;2022-07-21T04:05:36;101846.60;;;27.29;51.77
59873;BME280;50750;51.636;4.948;2022-07-21T04:08:04;101848.76;;;27.29;51.72
59873;BME280;50750;51.636;4.948;2022-07-21T04:10:33;101845.92;;;27.29;51.87
59873;BME280;50750;51.636;4.948;2022-07-21T04:13:03;101847.57;;;27.29;51.84
59873;BME280;50750;51.636;4.948;2022-07-21T04:15:31;101847.96;;;27.28;51.75
59873;BME280;50750;51.636;4.948;2022-07-21T04:17:58;101849.08;;;27.28;51.83
59873;BME280;50750;51.636;4.948;2022-07-21T04:20:25;101842.65;;;27.27;51.84
59873;BME280;50750;51.636;4.948;2022-07-21T04:22:52;101845.54;;;27.27;51.78
59873;BME280;50750;51.636;4.948;2022-07-21T04:25:20;101847.89;;;27.27;51.78
59873;BME280;50750;51.636;4.948;2022-07-21T04:27:47;101846.30;;;27.27;51.81
59873;BME280;50750;51.636;4.948;2022-07-21T04:30:16;101852.59;;;27.26;51.87
59873;BME280;50750;51.636;4.948;2022-07-21T04:32:43;101853.91;;;27.26;51.77
59873;BME280;50750;51.636;4.948;2022-07-21T04:35:11;101851.41;;;27.26;51.79
59873;BME280;50750;51.636;4.948;2022-07-21T04:37:38;101854.67;;;27.26;51.70
59873;BME280;50750;51.636;4.948;2022-07-21T04:40:06;101854.88;;;27.25;51.62
59873;BME280;50750;51.636;4.948;2022-07-21T04:42:34;101855.42;;;27.25;51.74
59873;BME280;50750;51.636;4.948;2022-07-21T04:45:01;101857.09;;;27.25;51.73
59873;BME280;50750;51.636;4.948;2022-07-21T04:47:28;101856.58;;;27.24;51.62
59873;BME280;50750;51.636;4.948;2022-07-21T04:49:55;101858.58;;;27.24;51.58
59873;BME280;50750;51.636;4.948;2022-07-21T04:52:21;101853.74;;;27.24;51.86
59873;BME280;50750;51.636;4.948;2022-07-21T04:54:47;101845.02;;;27.23;51.66
59873;BME280;50750;51.636;4.948;2022-07-21T04:57:14;101849.17;;;27.23;51.79
59873;BME280;50750;51.636;4.948;2022-07-21T04:59:40;101848.10;;;27.22;51.70
59873;BME280;50750;51.636;4.948;2022-07-21T05:02:07;101845.45;;;27.22;51.75
59873;BME280;50750;51.636;4.948;2022-07-21T05:04:33;101846.40;;;27.21;51.73
59873;BME280;50750;51.636;4.948;2022-07-21T05:07:00;101843.59;;;27.20;51.74
59873;BME280;50750;51.636;4.948;2022-07-21T05:09:26;101843.67;;;27.20;51.76
59873;BME280;50750;51.636;4.948;2022-07-21T05:11:53;101846.74;;;27.19;51.74
59873;BME280;50750;51.636;4.948;2022-07-21T05:14:19;101846.96;;;27.19;51.75
59873;BME280;50750;51.636;4.948;2022-07-21T05:16:45;101844.48;;;27.19;51.73
59873;BME280;50750;51.636;4.948;2022-07-21T05:19:12;101844.70;;;27.18;51.63
59873;BME280;50750;51.636;4.948;2022-07-21T05:21:38;101842.23;;;27.18;51.64
59873;BME280;50750;51.636;4.948;2022-07-21T05:24:05;101842.98;;;27.17;51.72
59873;BME280;50750;51.636;4.948;2022-07-21T05:26:32;101842.86;;;27.16;51.74
59873;BME280;50750;51.636;4.948;2022-07-21T05:28:58;101840.54;;;27.16;51.77
59873;BME280;50750;51.636;4.948;2022-07-21T05:31:25;101835.88;;;27.16;51.70
59873;BME280;50750;51.636;4.948;2022-07-21T05:33:51;101835.63;;;27.15;51.77
59873;BME280;50750;51.636;4.948;2022-07-21T05:36:18;101837.78;;;27.14;51.67
59873;BME280;50750;51.636;4.948;2022-07-21T05:38:45;101836.20;;;27.14;51.80
59873;BME280;50750;51.636;4.948;2022-07-21T05:41:11;101839.29;;;27.14;51.83
59873;BME280;50750;51.636;4.948;2022-07-21T05:43:38;101839.30;;;27.14;51.72
59873;BME280;50750;51.636;4.948;2022-07-21T05:46:04;101835.91;;;27.14;51.75
59873;BME280;50750;51.636;4.948;2022-07-21T05:48:31;101832.52;;;27.13;51.76
59873;BME280;50750;51.636;4.948;2022-07-21T05:50:57;101837.09;;;27.12;51.75
59873;BME280;50750;51.636;4.948;2022-07-21T05:53:24;101836.58;;;27.12;51.79
59873;BME280;50750;51.636;4.948;2022-07-21T05:55:50;101832.29;;;27.12;51.86
59873;BME280;50750;51.636;4.948;2022-07-21T05:58:16;101830.89;;;27.11;51.78
59873;BME280;50750;51.636;4.948;2022-07-21T06:00:45;101824.77;;;27.11;51.77
59873;BME280;50750;51.636;4.948;2022-07-21T06:03:31;101824.85;;;27.10;51.82
59873;BME280;50750;51.636;4.948;2022-07-21T06:05:57;101827.05;;;27.09;51.77
59873;BME280;50750;51.636;4.948;2022-07-21T06:08:24;101827.41;;;27.09;51.78
59873;BME280;50750;51.636;4.948;2022-07-21T06:10:50;101829.63;;;27.09;51.74
59873;BME280;50750;51.636;4.948;2022-07-21T06:13:17;101831.22;;;27.09;51.82
59873;BME280;50750;51.636;4.948;2022-07-21T06:15:43;101834.98;;;27.09;51.80
59873;BME280;50750;51.636;4.948;2022-07-21T06:18:09;101840.63;;;27.08;51.65
59873;BME280;50750;51.636;4.948;2022-07-21T06:20:36;101838.11;;;27.08;51.75
59873;BME280;50750;51.636;4.948;2022-07-21T06:23:02;101839.77;;;27.08;51.83
59873;BME280;50750;51.636;4.948;2022-07-21T06:25:29;101840.16;;;27.07;51.81
59873;BME280;50750;51.636;4.948;2022-07-21T06:27:55;101843.94;;;27.07;51.77
59873;BME280;50750;51.636;4.948;2022-07-21T06:30:21;101845.59;;;27.07;51.92
59873;BME280;50750;51.636;4.948;2022-07-21T06:32:48;101842.05;;;27.06;51.83
59873;BME280;50750;51.636;4.948;2022-07-21T06:35:14;101844.25;;;27.06;51.83
59873;BME280;50750;51.636;4.948;2022-07-21T06:37:45;101846.45;;;27.05;51.93
59873;BME280;50750;51.636;4.948;2022-07-21T06:40:13;101848.61;;;27.05;51.80
59873;BME280;50750;51.636;4.948;2022-07-21T06:42:39;101850.05;;;27.05;51.76
59873;BME280;50750;51.636;4.948;2022-07-21T06:45:06;101855.80;;;27.05;51.74
59873;BME280;50750;51.636;4.948;2022-07-21T06:47:33;101853.52;;;27.05;51.90
59873;BME280;50750;51.636;4.948;2022-07-21T06:49:59;101852.52;;;27.04;51.90
59873;BME280;50750;51.636;4.948;2022-07-21T06:52:29;101854.17;;;27.03;51.79
59873;BME280;50750;51.636;4.948;2022-07-21T06:54:57;101855.75;;;27.04;51.85
59873;BME280;50750;51.636;4.948;2022-07-21T06:57:24;101854.34;;;27.03;51.91
59873;BME280;50750;51.636;4.948;2022-07-21T06:59:51;101856.52;;;27.03;51.89
59873;BME280;50750;51.636;4.948;2022-07-21T07:02:17;101857.09;;;27.03;51.83
59873;BME280;50750;51.636;4.948;2022-07-21T07:04:44;101860.34;;;27.03;51.92
59873;BME280;50750;51.636;4.948;2022-07-21T07:07:10;101858.40;;;27.02;51.94
59873;BME280;50750;51.636;4.948;2022-07-21T07:09:37;101859.02;;;27.01;51.84
59873;BME280;50750;51.636;4.948;2022-07-21T07:12:04;101860.13;;;27.01;51.84
59873;BME280;50750;51.636;4.948;2022-07-21T07:14:33;101860.38;;;27.00;51.84
59873;BME280;50750;51.636;4.948;2022-07-21T07:17:01;101866.70;;;27.00;51.98
59873;BME280;50750;51.636;4.948;2022-07-21T07:19:28;101871.60;;;26.99;51.76
59873;BME280;50750;51.636;4.948;2022-07-21T07:21:55;101873.73;;;26.99;51.81
59873;BME280;50750;51.636;4.948;2022-07-21T07:24:22;101874.33;;;26.99;51.97
59873;BME280;50750;51.636;4.948;2022-07-21T07:26:48;101874.02;;;26.98;52.08
59873;BME280;50750;51.636;4.948;2022-07-21T07:29:15;101869.51;;;26.99;51.88
59873;BME280;50750;51.636;4.948;2022-07-21T07:31:41;101870.44;;;26.98;51.92
59873;BME280;50750;51.636;4.948;2022-07-21T07:34:08;101870.31;;;26.97;51.93
59873;BME280;50750;51.636;4.948;2022-07-21T07:36:35;101876.25;;;26.97;52.02
59873;BME280;50750;51.636;4.948;2022-07-21T07:39:03;101871.95;;;26.97;51.94
59873;BME280;50750;51.636;4.948;2022-07-21T07:41:30;101870.73;;;26.97;52.04
59873;BME280;50750;51.636;4.948;2022-07-21T07:43:58;101874.70;;;26.96;51.94
59873;BME280;50750;51.636;4.948;2022-07-21T07:46:26;101873.83;;;26.96;51.98
59873;BME280;50750;51.636;4.948;2022-07-21T07:48:52;101875.91;;;26.95;52.01
59873;BME280;50750;51.636;4.948;2022-07-21T07:51:19;101873.58;;;26.95;51.87
59873;BME280;50750;51.636;4.948;2022-07-21T07:53:45;101874.47;;;26.95;51.98
59873;BME280;50750;51.636;4.948;2022-07-21T07:56:12;101874.89;;;26.94;52.01
59873;BME280;50750;51.636;4.948;2022-07-21T07:58:38;101881.72;;;26.94;52.09
59873;BME280;50750;51.636;4.948;2022-07-21T08:01:05;101877.97;;;26.94;52.06
59873;BME280;50750;51.636;4.948;2022-07-21T08:03:32;101879.48;;;26.93;52.01
59873;BME280;50750;51.636;4.948;2022-07-21T08:05:58;101878.45;;;26.93;51.96
59873;BME280;50750;51.636;4.948;2022-07-21T08:08:30;101883.30;;;26.93;52.11
59873;BME280;50750;51.636;4.948;2022-07-21T08:10:56;101883.36;;;26.92;52.08
59873;BME280;50750;51.636;4.948;2022-07-21T08:13:24;101882.28;;;26.92;51.96
59873;BME280;50750;51.636;4.948;2022-07-21T08:15:51;101881.98;;;26.91;52.05
59873;BME280;50750;51.636;4.948;2022-07-21T08:18:18;101883.25;;;26.91;52.01
59873;BME280;50750;51.636;4.948;2022-07-21T08:20:46;101887.39;;;26.91;52.02
59873;BME280;50750;51.636;4.948;2022-07-21T08:23:14;101888.75;;;26.90;52.05
59873;BME280;50750;51.636;4.948;2022-07-21T08:25:41;101889.86;;;26.89;52.02
59873;BME280;50750;51.636;4.948;2022-07-21T08:28:08;101894.73;;;26.89;52.09
59873;BME280;50750;51.636;4.948;2022-07-21T08:30:35;101898.17;;;26.88;52.09
59873;BME280;50750;51.636;4.948;2022-07-21T08:33:02;101895.14;;;26.88;52.15
59873;BME280;50750;51.636;4.948;2022-07-21T08:35:29;101897.70;;;26.88;52.06
59873;BME280;50750;51.636;4.948;2022-07-21T08:37:58;101898.30;;;26.87;52.15
59873;BME280;50750;51.636;4.948;2022-07-21T08:40:26;101903.55;;;26.87;52.04
59873;BME280;50750;51.636;4.948;2022-07-21T08:42:53;101904.66;;;26.86;52.13
59873;BME280;50750;51.636;4.948;2022-07-21T08:45:21;101908.00;;;26.85;52.09
59873;BME280;50750;51.636;4.948;2022-07-21T08:47:52;101911.80;;;26.85;52.11
59873;BME280;50750;51.636;4.948;2022-07-21T08:50:20;101908.99;;;26.84;52.13
59873;BME280;50750;51.636;4.948;2022-07-21T08:52:48;101910.27;;;26.84;52.12
59873;BME280;50750;51.636;4.948;2022-07-21T08:55:14;101907.61;;;26.83;52.13
59873;BME280;50750;51.636;4.948;2022-07-21T08:57:41;101906.75;;;26.83;52.10
59873;BME280;50750;51.636;4.948;2022-07-21T09:00:09;101907.46;;;26.83;52.20
59873;BME280;50750;51.636;4.948;2022-07-21T09:02:37;101906.98;;;26.82;52.15
59873;BME280;50750;51.636;4.948;2022-07-21T09:05:06;101908.99;;;26.82;52.20
59873;BME280;50750;51.636;4.948;2022-07-21T09:07:51;101909.36;;;26.82;52.03
59873;BME280;50750;51.636;4.948;2022-07-21T09:10:24;101909.23;;;26.81;52.20
59873;BME280;50750;51.636;4.948;2022-07-21T09:12:53;101909.80;;;26.81;52.17
59873;BME280;50750;51.636;4.948;2022-07-21T09:15:22;101914.83;;;26.81;52.11
59873;BME280;50750;51.636;4.948;2022-07-21T09:18:07;101916.80;;;26.81;52.13
59873;BME280;50750;51.636;4.948;2022-07-21T09:20:35;101916.27;;;26.81;52.20
59873;BME280;50750;51.636;4.948;2022-07-21T09:23:12;101915.71;;;26.81;52.16
59873;BME280;50750;51.636;4.948;2022-07-21T09:25:48;101914.14;;;26.81;52.12
59873;BME280;50750;51.636;4.948;2022-07-21T09:28:26;101917.20;;;26.80;52.23
59873;BME280;50750;51.636;4.948;2022-07-21T09:36:04;101918.53;;;26.79;52.13
59873;BME280;50750;51.636;4.948;2022-07-21T09:38:33;101919.10;;;26.79;52.19
59873;BME280;50750;51.636;4.948;2022-07-21T09:41:04;101922.36;;;26.79;52.12
59873;BME280;50750;51.636;4.948;2022-07-21T09:46:02;101927.36;;;26.77;52.17
59873;BME280;50750;51.636;4.948;2022-07-21T09:48:35;101925.42;;;26.77;52.18
59873;BME280;50750;51.636;4.948;2022-07-21T09:54:05;101929.27;;;26.76;52.24
59873;BME280;50750;51.636;4.948;2022-07-21T09:56:35;101931.17;;;26.75;52.14
59873;BME280;50750;51.636;4.948;2022-07-21T09:59:03;101933.86;;;26.75;52.22
59873;BME280;50750;51.636;4.948;2022-07-21T10:01:30;101937.52;;;26.74;52.31
59873;BME280;50750;51.636;4.948;2022-07-21T10:03:58;101939.50;;;26.74;52.25
59873;BME280;50750;51.636;4.948;2022-07-21T10:06:31;101943.29;;;26.73;52.22
59873;BME280;50750;51.636;4.948;2022-07-21T10:08:59;101946.55;;;26.73;52.31
59873;BME280;50750;51.636;4.948;2022-07-21T10:11:27;101950.54;;;26.73;52.16
59873;BME280;50750;51.636;4.948;2022-07-21T10:13:54;101953.63;;;26.72;52.23
59873;BME280;50750;51.636;4.948;2022-07-21T10:16:21;101954.20;;;26.72;52.19
59873;BME280;50750;51.636;4.948;2022-07-21T10:19:08;101953.69;;;26.72;52.18
59873;BME280;50750;51.636;4.948;2022-07-21T10:22:04;101956.23;;;26.71;52.25
59873;BME280;50750;51.636;4.948;2022-07-21T10:24:33;101955.92;;;26.71;52.18
59873;BME280;50750;51.636;4.948;2022-07-21T10:29:53;101961.23;;;26.69;52.27
59873;BME280;50750;51.636;4.948;2022-07-21T10:32:23;101964.67;;;26.69;52.21
59873;BME280;50750;51.636;4.948;2022-07-21T10:34:52;101967.92;;;26.69;52.34
59873;BME280;50750;51.636;4.948;2022-07-21T10:45:33;101975.75;;;26.68;52.12
59873;BME280;50750;51.636;4.948;2022-07-21T10:48:01;101976.17;;;26.66;52.30
59873;BME280;50750;51.636;4.948;2022-07-21T10:50:39;101977.29;;;26.66;52.26
59873;BME280;50750;51.636;4.948;2022-07-21T10:53:14;101980.71;;;26.66;52.40
59873;BME280;50750;51.636;4.948;2022-07-21T10:55:49;101980.59;;;26.65;52.22
59873;BME280;50750;51.636;4.948;2022-07-21T10:58:32;101985.66;;;26.65;52.21
59873;BME280;50750;51.636;4.948;2022-07-21T11:03:42;101987.15;;;26.64;52.31
59873;BME280;50750;51.636;4.948;2022-07-21T11:06:21;101990.79;;;26.63;52.27
59873;BME280;50750;51.636;4.948;2022-07-21T11:11:34;101992.46;;;26.63;52.27
59873;BME280;50750;51.636;4.948;2022-07-21T11:19:41;101999.20;;;26.62;52.16
59873;BME280;50750;51.636;4.948;2022-07-21T11:22:23;101997.08;;;26.61;52.32
59873;BME280;50750;51.636;4.948;2022-07-21T11:25:03;102002.86;;;26.61;52.19
59873;BME280;50750;51.636;4.948;2022-07-21T11:27:32;102008.65;;;26.60;52.30
59873;BME280;50750;51.636;4.948;2022-07-21T11:30:01;102007.97;;;26.60;52.35
59873;BME280;50750;51.636;4.948;2022-07-21T11:32:28;102009.95;;;26.60;52.28
59873;BME280;50750;51.636;4.948;2022-07-21T11:34:57;102008.94;;;26.59;52.27
59873;BME280;50750;51.636;4.948;2022-07-21T11:40:00;102014.27;;;26.58;52.24
59873;BME280;50750;51.636;4.948;2022-07-21T11:42:28;102011.61;;;26.57;52.40
59873;BME280;50750;51.636;4.948;2022-07-21T11:44:57;102009.46;;;26.57;52.34
59873;BME280;50750;51.636;4.948;2022-07-21T11:47:23;102013.41;;;26.57;52.30
59873;BME280;50750;51.636;4.948;2022-07-21T11:49:57;102014.71;;;26.56;52.33
59873;BME280;50750;51.636;4.948;2022-07-21T11:52:28;102014.04;;;26.56;52.36
59873;BME280;50750;51.636;4.948;2022-07-21T11:54:57;102012.95;;;26.56;52.39
59873;BME280;50750;51.636;4.948;2022-07-21T11:57:25;102012.30;;;26.55;52.29
59873;BME280;50750;51.636;4.948;2022-07-21T11:59:53;102016.27;;;26.55;52.32
59873;BME280;50750;51.636;4.948;2022-07-21T12:02:22;102014.65;;;26.55;52.33
59873;BME280;50750;51.636;4.948;2022-07-21T12:04:54;102011.99;;;26.54;52.30
59873;BME280;50750;51.636;4.948;2022-07-21T12:09:58;102011.65;;;26.54;52.30
59873;BME280;50750;51.636;4.948;2022-07-21T12:12:32;102015.95;;;26.54;52.32
59873;BME280;50750;51.636;4.948;2022-07-21T12:17:57;102021.60;;;26.54;52.34
59873;BME280;50750;51.636;4.948;2022-07-21T12:22:55;102025.96;;;26.53;52.36
59873;BME280;50750;51.636;4.948;2022-07-21T12:25:36;102026.60;;;26.52;52.33
59873;BME280;50750;51.636;4.948;2022-07-21T12:28:05;102029.13;;;26.51;52.41
59873;BME280;50750;51.636;4.948;2022-07-21T12:30:49;102030.23;;;26.51;52.33
59873;BME280;50750;51.636;4.948;2022-07-21T12:33:34;102031.00;;;26.50;52.33
59873;BME280;50750;51.636;4.948;2022-07-21T12:36:01;102032.27;;;26.50;52.47
59873;BME280;50750;51.636;4.948;2022-07-21T12:38:43;102036.42;;;26.50;52.30
59873;BME280;50750;51.636;4.948;2022-07-21T12:41:16;102038.44;;;26.49;52.40
59873;BME280;50750;51.636;4.948;2022-07-21T12:43:56;102038.98;;;26.50;52.40
59873;BME280;50750;51.636;4.948;2022-07-21T12:46:34;102037.17;;;26.49;52.44
59873;BME280;50750;51.636;4.948;2022-07-21T12:49:05;102035.24;;;26.49;52.44
59873;BME280;50750;51.636;4.948;2022-07-21T12:51:32;102034.87;;;26.49;52.42
59873;BME280;50750;51.636;4.948;2022-07-21T12:53:58;102037.23;;;26.49;52.49
59873;BME280;50750;51.636;4.948;2022-07-21T12:56:28;102036.91;;;26.48;52.46
59873;BME280;50750;51.636;4.948;2022-07-21T12:58:57;102044.10;;;26.48;52.38
59873;BME280;50750;51.636;4.948;2022-07-21T13:01:25;102041.95;;;26.48;52.32
59873;BME280;50750;51.636;4.948;2022-07-21T13:03:53;102038.61;;;26.47;52.40
59873;BME280;50750;51.636;4.948;2022-07-21T13:06:20;102040.48;;;26.46;52.35
59873;BME280;50750;51.636;4.948;2022-07-21T13:08:47;102036.49;;;26.46;52.35
59873;BME280;50750;51.636;4.948;2022-07-21T13:11:17;102043.36;;;26.46;52.38
59873;BME280;50750;51.636;4.948;2022-07-21T13:13:46;102042.31;;;26.46;52.42
59873;BME280;50750;51.636;4.948;2022-07-21T13:16:13;102042.84;;;26.45;52.43
59873;BME280;50750;51.636;4.948;2022-07-21T13:18:40;102044.48;;;26.45;52.49
59873;BME280;50750;51.636;4.948;2022-07-21T13:21:06;102049.54;;;26.45;52.42
59873;BME280;50750;51.636;4.948;2022-07-21T13:23:33;102056.36;;;26.45;52.42
59873;BME280;50750;51.636;4.948;2022-07-21T13:25:59;102053.90;;;26.44;52.54
59873;BME280;50750;51.636;4.948;2022-07-21T13:28:26;102058.38;;;26.44;52.43
59873;BME280;50750;51.636;4.948;2022-07-21T13:30:53;102060.73;;;26.44;52.44
59873;BME280;50750;51.636;4.948;2022-07-21T13:33:19;102063.27;;;26.44;52.34
59873;BME280;50750;51.636;4.948;2022-07-21T13:35:46;102063.13;;;26.43;52.40
59873;BME280;50750;51.636;4.948;2022-07-21T13:38:12;102062.60;;;26.43;52.42
59873;BME280;50750;51.636;4.948;2022-07-21T13:40:39;102069.27;;;26.43;52.46